sensor_id;sensor_type;location;lat;lon;timestamp;pressure;altitude;pressure_sealevel;temperature;humidity
58385;BME280;44185;47.844;8.966;2022-08-19T00:01:09;95794.84;;;16.41;100.00
58385;BME280;44185;47.844;8.966;2022-08-19T00:03:36;95798.91;;;16.37;100.00
58385;BME280;44185;47.844;8.966;2022-08-19T00:06:01;95800.75;;;16.37;100.00
58385;BME280;44185;47.844;8.966;2022-08-19T00:08:27;95800.25;;;16.33;100.00
58385;BME280;44185;47.844;8.966;2022-08-19T00:10:52;95800.38;;;16.40;100.00
58385;BME280;44185;47.844;8.966;2022-08-19T00:13:18;95809.59;;;16.37;100.00
58385;BME280;44185;47.844;8.966;2022-08-19T00:15:43;95809.94;;;16.34;100.00
58385;BME280;44185;47.844;8.966;2022-08-19T00:18:09;95819.69;;;16.27;100.00
58385;BME280;44185;47.844;8.966;2022-08-19T00:20:36;95832.78;;;16.37;100.00
58385;BME280;44185;47.844;8.966;2022-08-19T00:23:01;95825.22;;;16.40;100.00
58385;BME280;44185;47.844;8.966;2022-08-19T00:25:27;95824.94;;;16.35;100.00
58385;BME280;44185;47.844;8.966;2022-08-19T00:27:52;95819.16;;;16.47;100.00
58385;BME280;44185;47.844;8.966;2022-08-19T00:30:18;95817.63;;;16.52;100.00
58385;BME280;44185;47.844;8.966;2022-08-19T00:32:43;95812.84;;;16.48;100.00
58385;BME280;44185;47.844;8.966;2022-08-19T00:35:09;95826.19;;;16.48;100.00
58385;BME280;44185;47.844;8.966;2022-08-19T00:37:36;95815.84;;;16.44;100.00
58385;BME280;44185;47.844;8.966;2022-08-19T00:40:04;95828.06;;;16.39;100.00
58385;BME280;44185;47.844;8.966;2022-08-19T00:42:30;95828.91;;;16.39;100.00
58385;BME280;44185;47.844;8.966;2022-08-19T00:44:55;95829.22;;;16.44;100.00
58385;BME280;44185;47.844;8.966;2022-08-19T00:47:21;95819.53;;;16.43;100.00
58385;BME280;44185;47.844;8.966;2022-08-19T00:49:49;95817.34;;;16.47;100.00
58385;BME280;44185;47.844;8.966;2022-08-19T00:52:20;95813.13;;;16.53;100.00
58385;BME280;44185;47.844;8.966;2022-08-19T00:54:47;95807.88;;;16.60;100.00
58385;BME280;44185;47.844;8.966;2022-08-19T00:57:17;95821.63;;;16.72;100.00
58385;BME280;44185;47.844;8.966;2022-08-19T00:59:46;95818.69;;;16.66;100.00
58385;BME280;44185;47.844;8.966;2022-08-19T01:02:13;95820.09;;;16.54;100.00
58385;BME280;44185;47.844;8.966;2022-08-19T01:04:39;95822.34;;;16.65;100.00
58385;BME280;44185;47.844;8.966;2022-08-19T01:07:05;95820.28;;;16.52;100.00
58385;BME280;44185;47.844;8.966;2022-08-19T01:09:30;95821.41;;;16.58;100.00
58385;BME280;44185;47.844;8.966;2022-08-19T01:11:58;95824.38;;;16.63;100.00
58385;BME280;44185;47.844;8.966;2022-08-19T01:14:24;95826.69;;;16.66;100.00
58385;BME280;44185;47.844;8.966;2022-08-19T01:16:50;95820.69;;;16.64;100.00
58385;BME280;44185;47.844;8.966;2022-08-19T01:19:20;95817.94;;;16.73;100.00
58385;BME280;44185;47.844;8.966;2022-08-19T01:21:53;95814.53;;;16.79;100.00
58385;BME280;44185;47.844;8.966;2022-08-19T01:24:21;95807.44;;;16.71;100.00
58385;BME280;44185;47.844;8.966;2022-08-19T01:26:47;95794.44;;;16.68;100.00
58385;BME280;44185;47.844;8.966;2022-08-19T01:29:13;95798.59;;;16.71;100.00
58385;BME280;44185;47.844;8.966;2022-08-19T01:31:39;95796.63;;;16.64;100.00
58385;BME280;44185;47.844;8.966;2022-08-19T01:34:06;95801.25;;;16.55;100.00
58385;BME280;44185;47.844;8.966;2022-08-19T01:36:34;95805.28;;;16.51;100.00
58385;BME280;44185;47.844;8.966;2022-08-19T01:39:01;95813.28;;;16.51;100.00
58385;BME280;44185;47.844;8.966;2022-08-19T01:41:30;95803.16;;;16.47;100.00
58385;BME280;44185;47.844;8.966;2022-08-19T01:43:55;95805.28;;;16.51;100.00
58385;BME280;44185;47.844;8.966;2022-08-19T01:46:21;95807.88;;;16.60;100.00
58385;BME280;44185;47.844;8.966;2022-08-19T01:48:46;95803.72;;;16.57;100.00
58385;BME280;44185;47.844;8.966;2022-08-19T01:51:12;95802.81;;;16.65;100.00
58385;BME280;44185;47.844;8.966;2022-08-19T01:53:39;95807.50;;;16.63;100.00
58385;BME280;44185;47.844;8.966;2022-08-19T01:56:06;95804.66;;;16.64;100.00
58385;BME280;44185;47.844;8.966;2022-08-19T01:58:35;95804.38;;;16.59;100.00
58385;BME280;44185;47.844;8.966;2022-08-19T02:01:02;95808.72;;;16.60;100.00
58385;BME280;44185;47.844;8.966;2022-08-19T02:03:27;95807.88;;;16.60;100.00
58385;BME280;44185;47.844;8.966;2022-08-19T02:05:57;95799.44;;;16.71;100.00
58385;BME280;44185;47.844;8.966;2022-08-19T02:08:23;95794.38;;;16.76;100.00
58385;BME280;44185;47.844;8.966;2022-08-19T02:10:49;95780.72;;;16.71;100.00
58385;BME280;44185;47.844;8.966;2022-08-19T02:13:14;95780.09;;;16.69;100.00
58385;BME280;44185;47.844;8.966;2022-08-19T02:15:41;95795.00;;;16.63;100.00
58385;BME280;44185;47.844;8.966;2022-08-19T02:18:07;95791.97;;;16.66;100.00
58385;BME280;44185;47.844;8.966;2022-08-19T02:20:33;95792.69;;;16.75;100.00
58385;BME280;44185;47.844;8.966;2022-08-19T02:22:58;95787.19;;;16.77;100.00
58385;BME280;44185;47.844;8.966;2022-08-19T02:25:23;95791.34;;;16.79;100.00
58385;BME280;44185;47.844;8.966;2022-08-19T02:27:49;95788.19;;;16.76;100.00
58385;BME280;44185;47.844;8.966;2022-08-19T02:30:15;95788.38;;;16.74;100.00
58385;BME280;44185;47.844;8.966;2022-08-19T02:32:43;95796.13;;;16.69;100.00
58385;BME280;44185;47.844;8.966;2022-08-19T02:35:09;95793.25;;;16.71;100.00
58385;BME280;44185;47.844;8.966;2022-08-19T02:37:35;95787.06;;;16.70;100.00
58385;BME280;44185;47.844;8.966;2022-08-19T02:40:00;95789.47;;;16.65;100.00
58385;BME280;44185;47.844;8.966;2022-08-19T02:42:27;95793.97;;;16.64;100.00
58385;BME280;44185;47.844;8.966;2022-08-19T02:44:52;95796.91;;;16.70;100.00
58385;BME280;44185;47.844;8.966;2022-08-19T02:47:20;95799.97;;;16.66;100.00
58385;BME280;44185;47.844;8.966;2022-08-19T02:49:47;95796.28;;;16.67;100.00
58385;BME280;44185;47.844;8.966;2022-08-19T02:52:12;95801.91;;;16.73;100.00
58385;BME280;44185;47.844;8.966;2022-08-19T02:54:38;95804.22;;;16.76;100.00
58385;BME280;44185;47.844;8.966;2022-08-19T02:57:03;95807.38;;;16.79;100.00
58385;BME280;44185;47.844;8.966;2022-08-19T02:59:29;95810.38;;;16.76;100.00
58385;BME280;44185;47.844;8.966;2022-08-19T03:01:55;95805.22;;;16.75;100.00
58385;BME280;44185;47.844;8.966;2022-08-19T03:04:20;95805.22;;;16.75;100.00
58385;BME280;44185;47.844;8.966;2022-08-19T03:06:48;95802.53;;;16.75;100.00
58385;BME280;44185;47.844;8.966;2022-08-19T03:09:14;95798.03;;;16.75;100.00
58385;BME280;44185;47.844;8.966;2022-08-19T03:11:40;95795.19;;;16.77;100.00
58385;BME280;44185;47.844;8.966;2022-08-19T03:14:07;95799.06;;;16.74;100.00
58385;BME280;44185;47.844;8.966;2022-08-19T03:16:40;95796.13;;;16.69;100.00
58385;BME280;44185;47.844;8.966;2022-08-19T03:19:06;95802.66;;;16.66;100.00
58385;BME280;44185;47.844;8.966;2022-08-19T03:21:33;95803.44;;;16.67;100.00
58385;BME280;44185;47.844;8.966;2022-08-19T03:24:02;95806.31;;;16.65;100.00
58385;BME280;44185;47.844;8.966;2022-08-19T03:26:29;95800.25;;;16.72;100.00
58385;BME280;44185;47.844;8.966;2022-08-19T03:28:55;95804.13;;;16.69;100.00
58385;BME280;44185;47.844;8.966;2022-08-19T03:31:21;95802.44;;;16.68;100.00
58385;BME280;44185;47.844;8.966;2022-08-19T03:33:48;95803.84;;;16.64;100.00
58385;BME280;44185;47.844;8.966;2022-08-19T03:36:16;95799.31;;;16.64;100.00
58385;BME280;44185;47.844;8.966;2022-08-19T03:38:44;95808.34;;;16.63;100.00
58385;BME280;44185;47.844;8.966;2022-08-19T03:41:13;95805.41;;;16.58;100.00
58385;BME280;44185;47.844;8.966;2022-08-19T03:43:39;95798.84;;;16.61;100.00
58385;BME280;44185;47.844;8.966;2022-08-19T03:46:07;95802.53;;;16.60;100.00
58385;BME280;44185;47.844;8.966;2022-08-19T03:48:34;95798.50;;;16.64;100.00
58385;BME280;44185;47.844;8.966;2022-08-19T03:51:00;95805.03;;;16.61;100.00
58385;BME280;44185;47.844;8.966;2022-08-19T03:53:26;95804.38;;;16.59;100.00
58385;BME280;44185;47.844;8.966;2022-08-19T03:55:52;95798.03;;;16.60;100.00
58385;BME280;44185;47.844;8.966;2022-08-19T03:58:19;95791.28;;;16.64;100.00
58385;BME280;44185;47.844;8.966;2022-08-19T04:00:44;95794.72;;;16.58;100.00
58385;BME280;44185;47.844;8.966;2022-08-19T04:03:10;95784.38;;;16.55;100.00
58385;BME280;44185;47.844;8.966;2022-08-19T04:05:35;95780.72;;;16.56;100.00
58385;BME280;44185;47.844;8.966;2022-08-19T04:08:01;95788.19;;;16.61;100.00
58385;BME280;44185;47.844;8.966;2022-08-19T04:10:29;95779.13;;;16.62;100.00
58385;BME280;44185;47.844;8.966;2022-08-19T04:12:54;95781.00;;;16.61;100.00
58385;BME280;44185;47.844;8.966;2022-08-19T04:15:21;95782.19;;;16.59;100.00
58385;BME280;44185;47.844;8.966;2022-08-19T04:17:46;95781.16;;;16.60;100.00
58385;BME280;44185;47.844;8.966;2022-08-19T04:20:12;95773.50;;;16.56;100.00
58385;BME280;44185;47.844;8.966;2022-08-19T04:22:37;95780.72;;;16.56;100.00
58385;BME280;44185;47.844;8.966;2022-08-19T04:25:03;95768.00;;;16.58;100.00
58385;BME280;44185;47.844;8.966;2022-08-19T04:27:29;95771.88;;;16.55;100.00
58385;BME280;44185;47.844;8.966;2022-08-19T04:29:54;95773.22;;;16.51;100.00
58385;BME280;44185;47.844;8.966;2022-08-19T04:32:21;95780.78;;;16.48;100.00
58385;BME280;44185;47.844;8.966;2022-08-19T04:34:46;95781.31;;;16.43;100.00
58385;BME280;44185;47.844;8.966;2022-08-19T04:37:12;95780.38;;;16.36;100.00
58385;BME280;44185;47.844;8.966;2022-08-19T04:39:38;95773.84;;;16.38;100.00
58385;BME280;44185;47.844;8.966;2022-08-19T04:42:04;95781.22;;;16.36;100.00
58385;BME280;44185;47.844;8.966;2022-08-19T04:44:29;95796.59;;;16.34;100.00
58385;BME280;44185;47.844;8.966;2022-08-19T04:46:55;95796.22;;;16.37;100.00
58385;BME280;44185;47.844;8.966;2022-08-19T04:49:23;95806.53;;;16.40;100.00
58385;BME280;44185;47.844;8.966;2022-08-19T04:51:50;95806.25;;;16.35;100.00
58385;BME280;44185;47.844;8.966;2022-08-19T04:54:17;95808.91;;;16.35;100.00
58385;BME280;44185;47.844;8.966;2022-08-19T04:56:42;95818.59;;;16.36;100.00
58385;BME280;44185;47.844;8.966;2022-08-19T04:59:08;95820.63;;;16.34;100.00
58385;BME280;44185;47.844;8.966;2022-08-19T05:01:34;95820.25;;;16.37;100.00
58385;BME280;44185;47.844;8.966;2022-08-19T05:04:00;95823.09;;;16.36;100.00
58385;BME280;44185;47.844;8.966;2022-08-19T05:06:28;95826.41;;;16.38;100.00
58385;BME280;44185;47.844;8.966;2022-08-19T05:08:54;95821.06;;;16.38;100.00
58385;BME280;44185;47.844;8.966;2022-08-19T05:11:24;95823.56;;;16.39;100.00
58385;BME280;44185;47.844;8.966;2022-08-19T05:13:50;95823.56;;;16.39;100.00
58385;BME280;44185;47.844;8.966;2022-08-19T05:16:17;95824.88;;;16.43;100.00
58385;BME280;44185;47.844;8.966;2022-08-19T05:18:44;95827.81;;;16.49;100.00
58385;BME280;44185;47.844;8.966;2022-08-19T05:21:11;95835.75;;;16.42;100.00
58385;BME280;44185;47.844;8.966;2022-08-19T05:23:40;95837.75;;;16.40;100.00
58385;BME280;44185;47.844;8.966;2022-08-19T05:26:06;95840.78;;;16.37;100.00
58385;BME280;44185;47.844;8.966;2022-08-19T05:28:31;95846.28;;;16.35;100.00
58385;BME280;44185;47.844;8.966;2022-08-19T05:30:57;95835.75;;;16.42;100.00
58385;BME280;44185;47.844;8.966;2022-08-19T05:33:22;95838.41;;;16.42;100.00
58385;BME280;44185;47.844;8.966;2022-08-19T05:35:48;95843.03;;;16.48;100.00
58385;BME280;44185;47.844;8.966;2022-08-19T05:38:14;95846.16;;;16.52;100.00
58385;BME280;44185;47.844;8.966;2022-08-19T05:40:42;95852.16;;;16.54;100.00
58385;BME280;44185;47.844;8.966;2022-08-19T05:43:08;95855.66;;;16.54;100.00
58385;BME280;44185;47.844;8.966;2022-08-19T05:45:38;95849.78;;;16.59;100.00
58385;BME280;44185;47.844;8.966;2022-08-19T05:48:04;95844.06;;;16.62;100.00
58385;BME280;44185;47.844;8.966;2022-08-19T05:50:30;95855.41;;;16.64;100.00
58385;BME280;44185;47.844;8.966;2022-08-19T05:52:55;95853.75;;;16.63;100.00
58385;BME280;44185;47.844;8.966;2022-08-19T05:55:21;95857.06;;;16.65;100.00
58385;BME280;44185;47.844;8.966;2022-08-19T05:57:48;95858.63;;;16.60;100.00
58385;BME280;44185;47.844;8.966;2022-08-19T06:00:14;95854.03;;;16.68;100.00
58385;BME280;44185;47.844;8.966;2022-08-19T06:02:40;95845.56;;;16.65;100.00
58385;BME280;44185;47.844;8.966;2022-08-19T06:05:07;95844.81;;;16.56;100.00
58385;BME280;44185;47.844;8.966;2022-08-19T06:07:33;95845.75;;;16.63;100.00
58385;BME280;44185;47.844;8.966;2022-08-19T06:09:58;95842.72;;;16.66;100.00
58385;BME280;44185;47.844;8.966;2022-08-19T06:12:24;95839.66;;;16.70;100.00
58385;BME280;44185;47.844;8.966;2022-08-19T06:14:50;95844.19;;;16.69;100.00
58385;BME280;44185;47.844;8.966;2022-08-19T06:17:16;95838.84;;;16.69;100.00
58385;BME280;44185;47.844;8.966;2022-08-19T06:19:41;95838.66;;;16.71;100.00
58385;BME280;44185;47.844;8.966;2022-08-19T06:22:07;95847.97;;;16.75;100.00
58385;BME280;44185;47.844;8.966;2022-08-19T06:24:32;95850.00;;;16.73;100.00
58385;BME280;44185;47.844;8.966;2022-08-19T06:26:59;95840.34;;;16.72;100.00
58385;BME280;44185;47.844;8.966;2022-08-19T06:29:25;95839.22;;;16.66;100.00
58385;BME280;44185;47.844;8.966;2022-08-19T06:31:54;95841.53;;;16.69;100.00
58385;BME280;44185;47.844;8.966;2022-08-19T06:34:20;95850.06;;;16.64;100.00
58385;BME280;44185;47.844;8.966;2022-08-19T06:36:48;95850.06;;;16.64;100.00
58385;BME280;44185;47.844;8.966;2022-08-19T06:39:16;95855.03;;;16.67;100.00
58385;BME280;44185;47.844;8.966;2022-08-19T06:41:44;95859.09;;;16.63;100.00
58385;BME280;44185;47.844;8.966;2022-08-19T06:44:11;95858.75;;;16.66;100.00
58385;BME280;44185;47.844;8.966;2022-08-19T06:46:38;95860.59;;;16.66;100.00
58385;BME280;44185;47.844;8.966;2022-08-19T06:49:05;95857.28;;;16.64;100.00
58385;BME280;44185;47.844;8.966;2022-08-19T06:51:31;95859.19;;;16.70;100.00
58385;BME280;44185;47.844;8.966;2022-08-19T06:53:57;95864.66;;;16.77;100.00
58385;BME280;44185;47.844;8.966;2022-08-19T06:56:24;95855.63;;;16.78;100.00
58385;BME280;44185;47.844;8.966;2022-08-19T06:58:51;95854.78;;;16.77;100.00
58385;BME280;44185;47.844;8.966;2022-08-19T07:01:16;95851.41;;;16.84;100.00
58385;BME280;44185;47.844;8.966;2022-08-19T07:03:42;95855.38;;;16.88;100.00
58385;BME280;44185;47.844;8.966;2022-08-19T07:06:11;95854.53;;;16.87;100.00
58385;BME280;44185;47.844;8.966;2022-08-19T07:08:37;95856.66;;;16.92;100.00
58385;BME280;44185;47.844;8.966;2022-08-19T07:11:05;95861.81;;;16.94;100.00
58385;BME280;44185;47.844;8.966;2022-08-19T07:13:31;95858.50;;;16.92;100.00
58385;BME280;44185;47.844;8.966;2022-08-19T07:15:57;95861.38;;;16.90;100.00
58385;BME280;44185;47.844;8.966;2022-08-19T07:18:22;95868.00;;;16.94;100.00
58385;BME280;44185;47.844;8.966;2022-08-19T07:20:48;95861.53;;;16.88;100.00
58385;BME280;44185;47.844;8.966;2022-08-19T07:23:14;95861.38;;;16.90;100.00
58385;BME280;44185;47.844;8.966;2022-08-19T07:25:40;95859.34;;;16.92;100.00
58385;BME280;44185;47.844;8.966;2022-08-19T07:28:05;95853.34;;;16.90;100.00
58385;BME280;44185;47.844;8.966;2022-08-19T07:30:31;95866.72;;;16.90;100.00
58385;BME280;44185;47.844;8.966;2022-08-19T07:32:57;95867.56;;;16.90;100.00
58385;BME280;44185;47.844;8.966;2022-08-19T07:35:23;95876.00;;;16.94;100.00
58385;BME280;44185;47.844;8.966;2022-08-19T07:37:48;95872.44;;;17.02;100.00
58385;BME280;44185;47.844;8.966;2022-08-19T07:40:15;95873.19;;;16.96;100.00
58385;BME280;44185;47.844;8.966;2022-08-19T07:42:42;95872.34;;;16.95;100.00
58385;BME280;44185;47.844;8.966;2022-08-19T07:45:08;95874.19;;;16.95;100.00
58385;BME280;44185;47.844;8.966;2022-08-19T07:47:34;95877.34;;;16.98;100.00
58385;BME280;44185;47.844;8.966;2022-08-19T07:49:59;95874.66;;;16.98;100.00
58385;BME280;44185;47.844;8.966;2022-08-19T07:52:25;95874.47;;;17.00;100.00
58385;BME280;44185;47.844;8.966;2022-08-19T07:54:50;95877.06;;;17.08;100.00
58385;BME280;44185;47.844;8.966;2022-08-19T07:57:17;95875.66;;;17.12;100.00
58385;BME280;44185;47.844;8.966;2022-08-19T07:59:43;95874.13;;;17.18;100.00
58385;BME280;44185;47.844;8.966;2022-08-19T08:02:08;95876.81;;;17.18;100.00
58385;BME280;44185;47.844;8.966;2022-08-19T08:04:34;95881.31;;;17.18;100.00
58385;BME280;44185;47.844;8.966;2022-08-19T08:07:00;95880.19;;;17.12;100.00
58385;BME280;44185;47.844;8.966;2022-08-19T08:09:28;95879.28;;;17.20;100.00
58385;BME280;44185;47.844;8.966;2022-08-19T08:11:57;95882.63;;;17.22;100.00
58385;BME280;44185;47.844;8.966;2022-08-19T08:14:27;95883.28;;;17.24;100.00
58385;BME280;44185;47.844;8.966;2022-08-19T08:16:53;95887.22;;;17.28;100.00
58385;BME280;44185;47.844;8.966;2022-08-19T08:19:20;95898.59;;;17.30;100.00
58385;BME280;44185;47.844;8.966;2022-08-19T08:21:46;95898.75;;;17.29;100.00
58385;BME280;44185;47.844;8.966;2022-08-19T08:24:12;95901.63;;;17.27;100.00
58385;BME280;44185;47.844;8.966;2022-08-19T08:26:38;95897.66;;;17.23;100.00
58385;BME280;44185;47.844;8.966;2022-08-19T08:29:04;95912.31;;;17.27;100.00
58385;BME280;44185;47.844;8.966;2022-08-19T08:31:30;95915.00;;;17.27;100.00
58385;BME280;44185;47.844;8.966;2022-08-19T08:33:57;95905.88;;;17.21;100.00
58385;BME280;44185;47.844;8.966;2022-08-19T08:36:22;95908.06;;;17.18;100.00
58385;BME280;44185;47.844;8.966;2022-08-19T08:38:47;95914.72;;;17.22;100.00
58385;BME280;44185;47.844;8.966;2022-08-19T08:41:21;95915.91;;;17.19;100.00
58385;BME280;44185;47.844;8.966;2022-08-19T08:43:49;95914.06;;;17.20;100.00
58385;BME280;44185;47.844;8.966;2022-08-19T08:46:19;95919.72;;;17.25;100.00
58385;BME280;44185;47.844;8.966;2022-08-19T08:48:50;95915.16;;;17.26;100.00
58385;BME280;44185;47.844;8.966;2022-08-19T08:51:20;95921.06;;;17.21;100.00
58385;BME280;44185;47.844;8.966;2022-08-19T08:53:49;95921.91;;;17.21;100.00
58385;BME280;44185;47.844;8.966;2022-08-19T08:56:16;95931.41;;;17.24;100.00
58385;BME280;44185;47.844;8.966;2022-08-19T08:58:48;95929.66;;;17.16;100.00
58385;BME280;44185;47.844;8.966;2022-08-19T09:01:14;95933.25;;;17.23;100.00
58385;BME280;44185;47.844;8.966;2022-08-19T09:03:41;95933.78;;;17.19;100.00
58385;BME280;44185;47.844;8.966;2022-08-19T09:06:13;95928.72;;;17.24;100.00
58385;BME280;44185;47.844;8.966;2022-08-19T09:08:45;95934.44;;;17.21;100.00
58385;BME280;44185;47.844;8.966;2022-08-19T09:11:19;95938.78;;;17.22;100.00
58385;BME280;44185;47.844;8.966;2022-08-19T09:13:56;95935.91;;;17.23;100.00
58385;BME280;44185;47.844;8.966;2022-08-19T09:16:24;95940.78;;;17.20;100.00
58385;BME280;44185;47.844;8.966;2022-08-19T09:18:52;95939.22;;;17.26;100.00
58385;BME280;44185;47.844;8.966;2022-08-19T09:21:20;95945.91;;;17.30;100.00
58385;BME280;44185;47.844;8.966;2022-08-19T09:23:46;95938.94;;;17.20;100.00
58385;BME280;44185;47.844;8.966;2022-08-19T09:26:14;95944.44;;;17.04;100.00
58385;BME280;44185;47.844;8.966;2022-08-19T09:28:40;95938.69;;;17.07;100.00
58385;BME280;44185;47.844;8.966;2022-08-19T09:31:06;95950.34;;;17.14;100.00
58385;BME280;44185;47.844;8.966;2022-08-19T09:33:31;95950.44;;;17.06;100.00
58385;BME280;44185;47.844;8.966;2022-08-19T09:36:05;95953.38;;;17.11;100.00
58385;BME280;44185;47.844;8.966;2022-08-19T09:38:32;95944.72;;;17.09;100.00
58385;BME280;44185;47.844;8.966;2022-08-19T09:41:02;95955.84;;;16.97;100.00
58385;BME280;44185;47.844;8.966;2022-08-19T09:43:28;95950.19;;;16.92;100.00
58385;BME280;44185;47.844;8.966;2022-08-19T09:45:53;95951.88;;;16.93;100.00
58385;BME280;44185;47.844;8.966;2022-08-19T09:48:18;95965.34;;;17.00;100.00
58385;BME280;44185;47.844;8.966;2022-08-19T09:50:44;95964.16;;;17.03;100.00
58385;BME280;44185;47.844;8.966;2022-08-19T09:53:09;95962.97;;;17.05;100.00
58385;BME280;44185;47.844;8.966;2022-08-19T09:55:41;95969.50;;;17.03;100.00
58385;BME280;44185;47.844;8.966;2022-08-19T09:58:07;95975.75;;;16.95;100.00
58385;BME280;44185;47.844;8.966;2022-08-19T10:00:32;95967.06;;;16.93;100.00
58385;BME280;44185;47.844;8.966;2022-08-19T10:02:58;95977.50;;;17.03;100.00
58385;BME280;44185;47.844;8.966;2022-08-19T10:05:23;95972.72;;;16.98;100.00
58385;BME280;44185;47.844;8.966;2022-08-19T10:07:49;95978.41;;;16.95;100.00
58385;BME280;44185;47.844;8.966;2022-08-19T10:10:14;95975.38;;;16.98;100.00
58385;BME280;44185;47.844;8.966;2022-08-19T10:12:41;95975.09;;;16.93;100.00
58385;BME280;44185;47.844;8.966;2022-08-19T10:15:07;95983.75;;;16.95;100.00
58385;BME280;44185;47.844;8.966;2022-08-19T10:17:33;95983.47;;;16.89;100.00
58385;BME280;44185;47.844;8.966;2022-08-19T10:19:59;95981.44;;;16.92;100.00
58385;BME280;44185;47.844;8.966;2022-08-19T10:22:24;95977.75;;;16.93;100.00
58385;BME280;44185;47.844;8.966;2022-08-19T10:24:50;95981.13;;;16.86;100.00
58385;BME280;44185;47.844;8.966;2022-08-19T10:27:16;95984.66;;;16.87;100.00
58385;BME280;44185;47.844;8.966;2022-08-19T10:29:43;95988.16;;;16.87;100.00
58385;BME280;44185;47.844;8.966;2022-08-19T10:32:09;95981.34;;;16.85;100.00
58385;BME280;44185;47.844;8.966;2022-08-19T10:34:35;95991.28;;;16.91;100.00
58385;BME280;44185;47.844;8.966;2022-08-19T10:37:02;95991.47;;;16.89;100.00
58385;BME280;44185;47.844;8.966;2022-08-19T10:39:28;95994.69;;;16.85;100.00
58385;BME280;44185;47.844;8.966;2022-08-19T10:41:55;95991.72;;;16.79;100.00
58385;BME280;44185;47.844;8.966;2022-08-19T10:44:20;95995.41;;;16.78;100.00
58385;BME280;44185;47.844;8.966;2022-08-19T10:46:47;95999.91;;;16.78;100.00
58385;BME280;44185;47.844;8.966;2022-08-19T10:49:13;96001.72;;;16.77;100.00
58385;BME280;44185;47.844;8.966;2022-08-19T10:51:39;96004.31;;;16.71;100.00
58385;BME280;44185;47.844;8.966;2022-08-19T10:54:05;96010.47;;;16.71;100.00
58385;BME280;44185;47.844;8.966;2022-08-19T10:56:32;96000.34;;;16.66;100.00
58385;BME280;44185;47.844;8.966;2022-08-19T10:58:58;95994.69;;;16.61;100.00
58385;BME280;44185;47.844;8.966;2022-08-19T11:01:24;95999.88;;;16.54;100.00
58385;BME280;44185;47.844;8.966;2022-08-19T11:03:51;95998.06;;;16.55;100.00
58385;BME280;44185;47.844;8.966;2022-08-19T11:06:16;96000.53;;;16.56;100.00
58385;BME280;44185;47.844;8.966;2022-08-19T11:08:42;96004.22;;;16.55;100.00
58385;BME280;44185;47.844;8.966;2022-08-19T11:11:08;96000.41;;;16.50;100.00
58385;BME280;44185;47.844;8.966;2022-08-19T11:13:35;96005.22;;;16.54;100.00
58385;BME280;44185;47.844;8.966;2022-08-19T11:16:04;96004.09;;;16.49;100.00
58385;BME280;44185;47.844;8.966;2022-08-19T11:18:30;96001.91;;;16.52;100.00
58385;BME280;44185;47.844;8.966;2022-08-19T11:21:07;96004.09;;;16.49;100.00
58385;BME280;44185;47.844;8.966;2022-08-19T11:23:33;96002.75;;;16.53;100.00
58385;BME280;44185;47.844;8.966;2022-08-19T11:25:59;96008.19;;;16.60;100.00
58385;BME280;44185;47.844;8.966;2022-08-19T11:28:24;95996.38;;;16.54;100.00
58385;BME280;44185;47.844;8.966;2022-08-19T11:30:50;96015.38;;;16.59;100.00
58385;BME280;44185;47.844;8.966;2022-08-19T11:33:15;96006.03;;;16.63;100.00
58385;BME280;44185;47.844;8.966;2022-08-19T11:35:41;96011.72;;;16.60;100.00
58385;BME280;44185;47.844;8.966;2022-08-19T11:38:07;96013.88;;;16.56;100.00
58385;BME280;44185;47.844;8.966;2022-08-19T11:40:33;96010.72;;;16.61;100.00
58385;BME280;44185;47.844;8.966;2022-08-19T11:42:58;96018.44;;;16.56;100.00
58385;BME280;44185;47.844;8.966;2022-08-19T11:45:25;96016.09;;;16.53;100.00
58385;BME280;44185;47.844;8.966;2022-08-19T11:47:51;96022.09;;;16.55;100.00
58385;BME280;44185;47.844;8.966;2022-08-19T11:50:16;96019.41;;;16.55;100.00
58385;BME280;44185;47.844;8.966;2022-08-19T11:52:42;96020.06;;;16.57;100.00
58385;BME280;44185;47.844;8.966;2022-08-19T11:55:09;96021.75;;;16.58;100.00
58385;BME280;44185;47.844;8.966;2022-08-19T11:57:34;96013.53;;;16.60;100.00
58385;BME280;44185;47.844;8.966;2022-08-19T12:00:00;96017.59;;;16.55;100.00
58385;BME280;44185;47.844;8.966;2022-08-19T12:02:25;96019.91;;;16.59;100.00
58385;BME280;44185;47.844;8.966;2022-08-19T12:04:51;96022.41;;;16.60;100.00
58385;BME280;44185;47.844;8.966;2022-08-19T12:07:16;96010.00;;;16.67;100.00
58385;BME280;44185;47.844;8.966;2022-08-19T12:09:42;96023.34;;;16.67;100.00
58385;BME280;44185;47.844;8.966;2022-08-19T12:12:09;96015.53;;;16.66;100.00
58385;BME280;44185;47.844;8.966;2022-08-19T12:14:36;96019.19;;;16.65;100.00
58385;BME280;44185;47.844;8.966;2022-08-19T12:17:01;96026.03;;;16.67;100.00
58385;BME280;44185;47.844;8.966;2022-08-19T12:19:27;96027.50;;;16.70;100.00
58385;BME280;44185;47.844;8.966;2022-08-19T12:21:52;96034.53;;;16.71;100.00
58385;BME280;44185;47.844;8.966;2022-08-19T12:24:23;96030.81;;;16.72;100.00
58385;BME280;44185;47.844;8.966;2022-08-19T12:26:49;96031.50;;;16.74;100.00
58385;BME280;44185;47.844;8.966;2022-08-19T12:29:16;96037.31;;;16.78;100.00
58385;BME280;44185;47.844;8.966;2022-08-19T12:31:41;96037.16;;;16.79;100.00
58385;BME280;44185;47.844;8.966;2022-08-19T12:34:07;96033.94;;;16.84;100.00
58385;BME280;44185;47.844;8.966;2022-08-19T12:36:33;96037.59;;;16.83;100.00
58385;BME280;44185;47.844;8.966;2022-08-19T12:38:59;96028.91;;;16.89;100.00
58385;BME280;44185;47.844;8.966;2022-08-19T12:41:25;96028.69;;;16.91;100.00
58385;BME280;44185;47.844;8.966;2022-08-19T12:43:51;96029.09;;;16.88;100.00
58385;BME280;44185;47.844;8.966;2022-08-19T12:46:19;96028.53;;;16.93;100.00